Time;durP1;ratioP1;P1;durP2;ratioP2;P2;SDS_P1;SDS_P2;PMS_P1;PMS_P2;Temp;Humidity;BMP_temperature;BMP_pressure;BME280_temperature;BME280_humidity;BME280_pressure;Samples;Min_cycle;Max_cycle;Signal;HPM_P1;HPM_P2
2022/01/21 00:02:19;;;;;;;7.77;3.70;;;;;;;0.47;100.00;99267.66;4840497;29;20038;-62
2022/01/21 00:04:44;;;;;;;8.67;3.33;;;;;;;0.44;100.00;99258.25;4840453;29;20381;-62
2022/01/21 00:07:10;;;;;;;10.60;3.50;;;;;;;0.45;100.00;99261.72;4840553;29;20066;-63
2022/01/21 00:09:35;;;;;;;6.50;3.10;;;;;;;0.52;100.00;99257.59;4840508;29;20037;-62
2022/01/21 00:12:01;;;;;;;11.80;3.50;;;;;;;0.47;100.00;99252.72;4840261;29;20409;-62
2022/01/21 00:14:27;;;;;;;7.77;3.20;;;;;;;0.51;100.00;99256.75;4840533;29;20123;-62
2022/01/21 00:16:52;;;;;;;6.87;3.30;;;;;;;0.50;100.00;99255.09;4840473;29;20030;-62
2022/01/21 00:19:20;;;;;;;11.30;3.83;;;;;;;0.52;100.00;99265.50;4840414;29;20495;-62
2022/01/21 00:32:52;;;;;;;13.90;5.65;;;;;;;-0.35;100.00;99290.28;4783729;29;19921;-62
2022/01/21 00:35:19;;;;;;;10.93;4.83;;;;;;;-0.26;100.00;99295.63;4786965;30;20719;-62
2022/01/21 00:37:46;;;;;;;11.98;4.50;;;;;;;-0.27;100.00;99296.56;4787148;30;20080;-62
2022/01/21 00:40:15;;;;;;;11.48;4.97;;;;;;;-0.23;100.00;99297.16;4787131;30;20118;-62
2022/01/21 00:45:14;;;;;;;8.67;2.90;;;;;;;-0.22;100.00;99319.81;4787137;30;20047;-62
2022/01/21 00:47:41;;;;;;;5.88;2.15;;;;;;;-0.11;100.00;99320.63;4787284;30;20050;-62
2022/01/21 00:50:07;;;;;;;6.30;2.30;;;;;;;-0.02;100.00;99312.00;4787007;30;20035;-62
2022/01/21 00:52:32;;;;;;;4.22;1.90;;;;;;;-0.11;100.00;99322.41;4787086;30;20039;-62
2022/01/21 00:54:58;;;;;;;4.03;1.60;;;;;;;-0.01;100.00;99320.72;4786871;30;20445;-62
2022/01/21 00:57:23;;;;;;;2.33;1.50;;;;;;;-0.11;100.00;99325.88;4786840;30;20039;-62
2022/01/21 00:59:49;;;;;;;2.67;1.20;;;;;;;-0.01;100.00;99320.72;4786795;30;20042;-62
2022/01/21 01:02:14;;;;;;;2.23;1.30;;;;;;;-0.04;100.00;99336.72;4786787;30;20391;-62
2022/01/21 01:04:40;;;;;;;3.77;1.97;;;;;;;-0.09;100.00;99344.97;4786710;30;20166;-62
2022/01/21 01:07:07;;;;;;;2.75;1.30;;;;;;;-0.10;100.00;99347.72;4786681;30;20198;-63
2022/01/21 01:09:34;;;;;;;4.82;1.38;;;;;;;-0.12;100.00;99360.16;4821453;29;20134;-62
2022/01/21 01:20:00;;;;;;;4.43;1.25;;;;;;;-0.16;100.00;99364.81;4842929;29;20044;-62
2022/01/21 01:22:58;;;;;;;3.08;1.05;;;;;;;-0.18;100.00;99373.78;4842982;29;20044;-62
2022/01/21 01:28:03;;;;;;;2.25;1.00;;;;;;;-0.16;100.00;99371.88;4842863;29;20429;-62
2022/01/21 01:30:31;;;;;;;2.28;1.27;;;;;;;-0.18;100.00;99390.38;4842751;29;20030;-62
2022/01/21 01:32:59;;;;;;;2.45;1.42;;;;;;;-0.23;100.00;99383.81;4842878;29;20440;-62
2022/01/21 01:35:28;;;;;;;4.22;1.20;;;;;;;-0.39;100.00;99390.28;4842744;29;20030;-62
2022/01/21 01:40:53;;;;;;;3.22;1.30;;;;;;;-0.20;100.00;99384.41;4842613;29;20071;-62
2022/01/21 01:51:25;;;;;;;3.10;1.38;;;;;;;-0.16;100.00;99400.75;4842528;29;20102;-62
2022/01/21 01:53:58;;;;;;;4.75;1.45;;;;;;;-0.14;100.00;99401.47;4842631;29;20074;-62
2022/01/21 01:56:38;;;;;;;5.87;1.50;;;;;;;-0.12;100.00;99402.19;4842364;29;20098;-61
2022/01/21 01:59:03;;;;;;;4.03;1.33;;;;;;;-0.13;100.00;99411.88;4842269;29;20689;-62
2022/01/21 02:01:29;;;;;;;3.70;1.50;;;;;;;-0.15;100.00;99413.78;4842170;29;20037;-62
2022/01/21 02:03:54;;;;;;;3.47;1.50;;;;;;;-0.18;100.00;99427.13;4842279;29;20523;-62
2022/01/21 02:06:21;;;;;;;3.47;1.40;;;;;;;-0.23;100.00;99431.91;4841078;29;20025;-62
2022/01/21 02:08:46;;;;;;;5.25;1.50;;;;;;;-0.19;100.00;99449.09;4842173;29;20121;-62
2022/01/21 02:11:12;;;;;;;4.10;1.50;;;;;;;-1.07;100.00;99452.50;4841959;29;20128;-62
2022/01/21 02:13:47;;;;;;;3.87;1.40;;;;;;;-1.13;100.00;99449.38;4842359;29;20038;-63
2022/01/21 02:16:35;;;;;;;4.25;1.52;;;;;;;-1.53;100.00;99455.91;4842127;29;20038;-62
2022/01/21 02:21:47;;;;;;;4.97;2.25;;;;;;;-1.81;100.00;99472.78;4841941;29;20040;-62
2022/01/21 02:24:21;;;;;;;4.53;1.50;;;;;;;-1.70;100.00;99479.88;4842282;29;20448;-62
2022/01/21 02:26:49;;;;;;;2.65;1.13;;;;;;;-1.77;100.00;99479.50;4841882;29;20396;-62
2022/01/21 02:29:33;;;;;;;4.32;1.20;;;;;;;-1.72;100.00;99482.59;4841975;29;20453;-62
2022/01/21 02:32:00;;;;;;;3.88;1.20;;;;;;;-1.78;100.00;99477.81;4840683;29;20118;-62
2022/01/21 02:34:27;;;;;;;6.00;1.20;;;;;;;-1.76;100.00;99478.53;4841910;29;20038;-62
2022/01/21 02:36:52;;;;;;;2.45;1.20;;;;;;;-1.63;100.00;99481.13;4841562;29;20112;-62
2022/01/21 02:39:18;;;;;;;4.27;1.10;;;;;;;-1.65;100.00;99493.47;4841690;29;20129;-62
2022/01/21 02:41:44;;;;;;;3.27;1.00;;;;;;;-1.58;100.00;99494.69;4841452;29;20116;-62
2022/01/21 02:44:14;;;;;;;4.07;1.27;;;;;;;-1.51;100.00;99494.16;4841463;29;20037;-62
2022/01/21 02:46:41;;;;;;;2.95;1.25;;;;;;;-1.50;100.00;99502.88;4841529;29;20044;-62
2022/01/21 02:49:08;;;;;;;6.50;1.75;;;;;;;-1.40;100.00;99505.66;4841451;29;20057;-62
2022/01/21 02:51:35;;;;;;;3.95;1.15;;;;;;;-1.39;100.00;99513.41;4841886;29;20068;-62
2022/01/21 02:54:04;;;;;;;7.22;1.30;;;;;;;-1.34;100.00;99513.06;4841454;29;20496;-62
2022/01/21 02:56:31;;;;;;;2.45;1.10;;;;;;;-1.29;100.00;99516.19;4841214;29;20033;-63
2022/01/21 02:58:57;;;;;;;4.30;1.40;;;;;;;-1.32;100.00;99525.09;4841550;29;20568;-62
2022/01/21 03:01:24;;;;;;;2.88;0.98;;;;;;;-1.30;100.00;99536.31;4841332;29;20403;-62
2022/01/21 03:03:50;;;;;;;4.95;1.25;;;;;;;-1.29;100.00;99540.63;4841866;29;20034;-62
2022/01/21 03:06:18;;;;;;;4.85;1.10;;;;;;;-1.35;100.00;99542.84;4841468;29;20036;-62
2022/01/21 03:08:46;;;;;;;3.58;1.30;;;;;;;-1.47;100.00;99540.16;4841461;29;20056;-62
2022/01/21 03:11:14;;;;;;;2.17;1.23;;;;;;;-1.58;100.00;99542.72;4839833;29;20057;-62
2022/01/21 03:13:41;;;;;;;3.38;1.20;;;;;;;-1.66;100.00;99552.06;4841573;29;20052;-63
2022/01/21 03:16:07;;;;;;;4.03;1.30;;;;;;;-1.85;100.00;99555.97;4841071;29;20061;-62
2022/01/21 03:18:34;;;;;;;3.53;1.20;;;;;;;-1.99;100.00;99552.66;4841270;29;20038;-62
2022/01/21 03:21:00;;;;;;;3.45;1.30;;;;;;;-2.10;100.00;99557.81;4841102;29;20300;-62
2022/01/21 03:23:27;;;;;;;4.90;1.30;;;;;;;-2.26;100.00;99560.66;4841090;29;20038;-62
2022/01/21 03:25:53;;;;;;;4.47;1.58;;;;;;;-2.39;100.00;99572.88;4841016;29;20034;-62
2022/01/21 03:28:18;;;;;;;3.47;1.40;;;;;;;-2.61;100.00;99584.81;4839955;29;20506;-62
2022/01/21 03:30:44;;;;;;;4.47;1.50;;;;;;;-2.71;100.00;99580.28;4841224;29;20054;-62
2022/01/21 03:33:10;;;;;;;5.82;1.85;;;;;;;-2.90;100.00;99591.16;4841065;29;20053;-62
2022/01/21 03:35:36;;;;;;;3.45;1.00;;;;;;;-2.65;100.00;99595.56;4839718;29;20062;-62
2022/01/21 03:38:03;;;;;;;4.30;1.40;;;;;;;-2.77;100.00;99615.53;4840950;29;20046;-62
2022/01/21 03:40:29;;;;;;;2.75;1.10;;;;;;;-2.96;100.00;99615.06;4840868;29;20033;-62
2022/01/21 03:42:55;;;;;;;5.97;1.50;;;;;;;-3.13;100.00;99615.34;4839650;29;20049;-62
2022/01/21 03:45:20;;;;;;;4.80;1.50;;;;;;;-3.29;100.00;99618.91;4840963;29;20396;-62
2022/01/21 03:47:46;;;;;;;4.67;1.30;;;;;;;-3.06;100.00;99627.06;4840810;29;20038;-62
2022/01/21 03:50:22;;;;;;;2.90;1.10;;;;;;;-2.80;100.00;99626.22;4840801;29;20361;-62
2022/01/21 03:52:48;;;;;;;3.83;1.20;;;;;;;-2.83;100.00;99612.50;4840906;29;20026;-62
2022/01/21 03:55:13;;;;;;;2.50;1.40;;;;;;;-3.03;100.00;99629.47;4840714;29;20030;-62
2022/01/21 03:57:39;;;;;;;5.63;1.40;;;;;;;-2.32;100.00;99627.34;4840655;29;20034;-62
2022/01/21 04:00:07;;;;;;;4.13;1.30;;;;;;;-2.36;100.00;99625.88;4840653;29;20042;-62
2022/01/21 04:02:33;;;;;;;3.22;1.23;;;;;;;-2.46;100.00;99614.34;4840445;29;20034;-62
2022/01/21 04:04:59;;;;;;;3.73;1.23;;;;;;;-2.61;100.00;99621.44;4840605;29;20124;-62
2022/01/21 04:07:24;;;;;;;4.30;1.50;;;;;;;-2.41;100.00;99624.50;4840583;29;20058;-62
2022/01/21 04:09:50;;;;;;;3.60;1.30;;;;;;;-2.34;100.00;99631.84;4843363;29;20116;-62
2022/01/21 04:12:15;;;;;;;3.43;1.20;;;;;;;-2.05;100.00;99640.34;4844047;29;20058;-62
2022/01/21 04:14:42;;;;;;;2.77;1.10;;;;;;;-2.02;100.00;99636.69;4844162;29;20155;-62
2022/01/21 04:17:07;;;;;;;7.22;1.70;;;;;;;-2.13;100.00;99649.66;4844126;29;20441;-62
2022/01/21 04:19:33;;;;;;;4.40;1.30;;;;;;;-2.16;100.00;99642.00;4844163;29;20030;-62
2022/01/21 04:21:59;;;;;;;3.23;1.40;;;;;;;-2.33;100.00;99651.00;4843998;29;20041;-63
2022/01/21 04:24:24;;;;;;;1.83;0.87;;;;;;;-2.43;100.00;99658.66;4844023;29;20072;-63
2022/01/21 04:26:50;;;;;;;4.17;1.30;;;;;;;-2.58;100.00;99668.34;4843998;29;20030;-63
2022/01/21 04:29:16;;;;;;;3.65;1.05;;;;;;;-2.73;100.00;99666.72;4844049;29;20074;-62
2022/01/21 04:31:42;;;;;;;4.90;1.20;;;;;;;-2.86;100.00;99678.91;4843931;29;20037;-63
2022/01/21 04:34:07;;;;;;;3.60;1.53;;;;;;;-2.83;100.00;99686.56;4843820;29;20073;-62
2022/01/21 04:36:34;;;;;;;6.60;1.70;;;;;;;-2.76;100.00;99692.22;4843661;29;20404;-62
2022/01/21 04:39:02;;;;;;;4.72;1.35;;;;;;;-2.89;100.00;99694.81;4843706;29;20475;-62
2022/01/21 04:49:27;;;;;;;;;;;;;;;-2.73;100.00;99705.09;4844099;29;20500;-62
2022/01/21 04:52:04;;;;;;;3.83;1.20;;;;;;;-2.72;100.00;99701.56;4843384;29;19912;-62
2022/01/21 04:54:34;;;;;;;7.88;1.25;;;;;;;-2.95;100.00;99698.63;4843242;29;20048;-62
2022/01/21 04:57:01;;;;;;;4.50;1.40;;;;;;;-3.10;100.00;99697.00;4843264;29;20065;-62
2022/01/21 04:59:26;;;;;;;3.53;1.20;;;;;;;-3.17;100.00;99690.47;4843398;29;20560;-62
2022/01/21 05:01:53;;;;;;;2.43;1.10;;;;;;;-3.31;100.00;99704.41;4843114;29;20046;-63
2022/01/21 05:04:19;;;;;;;4.47;1.60;;;;;;;-3.45;100.00;99704.41;4843292;29;20026;-62
2022/01/21 05:06:47;;;;;;;4.88;1.70;;;;;;;-3.60;100.00;99707.97;4843093;29;20109;-62
2022/01/21 05:09:16;;;;;;;2.88;1.23;;;;;;;-3.78;100.00;99709.09;4843079;29;20034;-62
2022/01/21 05:11:47;;;;;;;3.28;1.40;;;;;;;-3.91;100.00;99726.41;4841644;29;20473;-62
2022/01/21 05:14:20;;;;;;;10.80;1.88;;;;;;;-4.04;100.00;99723.72;4843398;29;20034;-62
2022/01/21 05:16:48;;;;;;;;;;;;;;;-4.04;100.00;99728.94;4843681;29;20036;-62
2022/01/21 05:19:15;;;;;;;6.93;1.60;;;;;;;-3.92;100.00;99727.38;4842606;29;19920;-62
2022/01/21 05:21:51;;;;;;;4.80;1.60;;;;;;;-3.84;100.00;99736.41;4842980;29;20026;-62
2022/01/21 05:24:20;;;;;;;8.07;1.58;;;;;;;-3.89;100.00;99738.44;4842998;29;20047;-62
2022/01/21 05:26:53;;;;;;;4.40;1.35;;;;;;;-3.55;100.00;99741.66;4843053;29;20090;-62
2022/01/21 05:29:23;;;;;;;5.70;1.95;;;;;;;-3.65;100.00;99747.44;4842874;29;20069;-62
2022/01/21 05:31:50;;;;;;;5.53;1.50;;;;;;;-3.45;100.00;99741.00;4842864;29;20030;-62
2022/01/21 05:34:15;;;;;;;3.60;1.20;;;;;;;-3.40;100.00;99745.94;4842759;29;20034;-62
2022/01/21 05:36:41;;;;;;;9.70;1.70;;;;;;;-3.34;100.00;99749.00;4842818;29;20507;-62
2022/01/21 05:39:08;;;;;;;4.10;2.00;;;;;;;-3.32;100.00;99757.59;4842772;29;20090;-62
2022/01/21 05:41:33;;;;;;;5.78;1.67;;;;;;;-3.29;100.00;99761.81;4842746;29;20063;-62
2022/01/21 05:44:08;;;;;;;5.70;1.57;;;;;;;-3.33;100.00;99766.38;4842553;29;20037;-63
2022/01/21 05:49:09;;;;;;;3.72;1.30;;;;;;;-3.37;100.00;99779.75;4842710;29;20041;-62
2022/01/21 05:51:35;;;;;;;11.98;1.60;;;;;;;-3.40;100.00;99770.31;4842394;29;20125;-63
2022/01/21 05:54:01;;;;;;;6.38;1.65;;;;;;;-3.39;100.00;99774.59;4842310;29;20034;-62
2022/01/21 05:56:27;;;;;;;5.63;1.53;;;;;;;-3.37;100.00;99769.28;4825778;29;20040;-62
2022/01/21 05:58:52;;;;;;;6.45;2.05;;;;;;;-3.43;100.00;99772.25;4841083;29;20049;-62
2022/01/21 06:01:18;;;;;;;4.17;1.30;;;;;;;-3.45;100.00;99779.34;4842151;29;20073;-62
2022/01/21 06:03:44;;;;;;;7.20;2.03;;;;;;;-3.46;100.00;99775.06;4842453;29;20085;-62
2022/01/21 06:06:10;;;;;;;5.70;2.03;;;;;;;-3.55;100.00;99775.59;4842222;29;20026;-61
2022/01/21 06:08:40;;;;;;;4.22;1.50;;;;;;;-3.56;100.00;99773.91;4842221;29;20568;-62
2022/01/21 06:11:06;;;;;;;7.65;1.77;;;;;;;-3.62;100.00;99769.91;4841941;29;20106;-61
2022/01/21 06:13:32;;;;;;;8.23;1.77;;;;;;;-3.60;100.00;99777.66;4842022;29;20034;-61
2022/01/21 06:15:59;;;;;;;12.57;1.70;;;;;;;-3.59;100.00;99780.19;4841834;29;20037;-61
2022/01/21 06:18:25;;;;;;;4.63;1.50;;;;;;;-3.71;100.00;99792.22;4841897;29;20037;-62
2022/01/21 06:20:52;;;;;;;6.32;1.88;;;;;;;-3.83;100.00;99782.50;4841949;29;20390;-62
2022/01/21 06:23:19;;;;;;;5.75;1.70;;;;;;;-3.98;100.00;99783.38;4840607;29;20061;-62
2022/01/21 06:25:44;;;;;;;10.48;1.60;;;;;;;-3.67;100.00;99785.84;4840650;29;20036;-61
2022/01/21 06:28:10;;;;;;;8.47;1.80;;;;;;;-3.62;100.00;99793.44;4841828;29;20033;-62
2022/01/21 06:30:36;;;;;;;4.78;1.40;;;;;;;-3.48;100.00;99784.78;4840618;29;20030;-61
2022/01/21 06:33:02;;;;;;;4.43;1.60;;;;;;;-3.52;100.00;99791.94;4841481;29;20121;-61
2022/01/21 06:35:28;;;;;;;3.50;1.53;;;;;;;-3.65;100.00;99798.81;4842063;29;20036;-61
2022/01/21 06:37:54;;;;;;;6.70;1.73;;;;;;;-3.69;100.00;99805.16;4841711;29;20499;-62
2022/01/21 06:40:22;;;;;;;3.57;1.53;;;;;;;-3.73;100.00;99809.75;4841706;29;20540;-62
2022/01/21 06:42:49;;;;;;;13.55;4.50;;;;;;;-3.85;100.00;99813.06;4841784;29;20040;-62
2022/01/21 06:45:15;;;;;;;8.18;2.75;;;;;;;-3.89;100.00;99826.38;4841342;29;20392;-62
2022/01/21 06:47:41;;;;;;;9.43;2.90;;;;;;;-4.07;100.00;99826.53;4841656;29;20034;-62
2022/01/21 06:50:07;;;;;;;5.77;2.20;;;;;;;-4.11;100.00;99824.16;4841435;29;20038;-62
2022/01/21 06:52:33;;;;;;;6.07;2.53;;;;;;;-4.13;100.00;99834.69;4841800;29;20049;-62
2022/01/21 06:54:59;;;;;;;6.43;2.23;;;;;;;-4.17;100.00;99834.97;4840138;29;20116;-62
2022/01/21 06:57:25;;;;;;;4.03;1.70;;;;;;;-4.19;100.00;99837.66;4840219;29;20030;-62
2022/01/21 06:59:51;;;;;;;8.55;2.45;;;;;;;-4.29;100.00;99835.66;4841383;29;20037;-62
2022/01/21 07:02:18;;;;;;;8.80;1.97;;;;;;;-4.33;100.00;99829.75;4841054;29;20086;-62
2022/01/21 07:04:46;;;;;;;7.65;1.70;;;;;;;-4.35;100.00;99835.97;4841307;29;20026;-62
2022/01/21 07:07:12;;;;;;;7.95;1.92;;;;;;;-4.33;100.00;99840.19;4841015;29;20116;-62
2022/01/21 07:09:38;;;;;;;7.00;2.05;;;;;;;-4.26;100.00;99840.66;4841159;29;20041;-62
2022/01/21 07:12:04;;;;;;;8.73;2.00;;;;;;;-4.24;100.00;99838.81;4840927;29;20054;-62
2022/01/21 07:14:29;;;;;;;4.18;1.77;;;;;;;-4.19;100.00;99847.25;4841335;29;20033;-62
2022/01/21 07:16:55;;;;;;;6.00;1.90;;;;;;;-4.22;100.00;99845.66;4841056;29;20085;-62
2022/01/21 07:19:20;;;;;;;5.00;1.80;;;;;;;-4.18;100.00;99846.31;4840997;29;20037;-62
2022/01/21 07:21:46;;;;;;;6.97;2.00;;;;;;;-4.19;100.00;99847.25;4841040;29;20030;-62
2022/01/21 07:24:13;;;;;;;6.60;2.20;;;;;;;-4.18;100.00;99836.72;4840774;29;20034;-62
2022/01/21 07:26:39;;;;;;;6.68;1.98;;;;;;;-4.25;100.00;99832.75;4840542;29;20038;-61
2022/01/21 07:29:05;;;;;;;7.50;2.20;;;;;;;-4.27;100.00;99836.41;4839328;29;20053;-62
2022/01/21 07:31:31;;;;;;;5.10;1.70;;;;;;;-4.22;100.00;99836.97;4823104;29;20030;-61
2022/01/21 07:33:58;;;;;;;5.07;1.90;;;;;;;-4.23;100.00;99835.28;4822778;29;20049;-62
2022/01/21 07:36:24;;;;;;;8.82;2.35;;;;;;;-4.21;100.00;99833.44;4822781;29;20061;-63
2022/01/21 07:38:50;;;;;;;24.27;10.38;;;;;;;-4.26;100.00;99825.03;4822693;29;20026;-63
2022/01/21 07:41:15;;;;;;;6.83;2.30;;;;;;;-4.24;100.00;99831.00;4821368;29;20034;-64
2022/01/21 07:43:41;;;;;;;8.43;2.70;;;;;;;-4.22;100.00;99829.16;4821783;29;20553;-64
2022/01/21 07:46:06;;;;;;;9.63;2.50;;;;;;;-4.20;100.00;99835.13;4817086;29;20030;-66
2022/01/21 07:48:32;;;;;;;8.23;1.90;;;;;;;-4.16;100.00;99832.28;4820269;29;20038;-64
2022/01/21 07:50:57;;;;;;;7.20;2.03;;;;;;;-3.74;100.00;99833.31;4822611;29;20034;-64
2022/01/21 07:53:23;;;;;;;6.27;2.00;;;;;;;-2.73;100.00;99847.19;4834428;29;20069;-62
2022/01/21 07:55:50;;;;;;;5.43;1.87;;;;;;;-1.74;100.00;99850.47;4840312;29;20041;-63
2022/01/21 07:58:17;;;;;;;5.30;1.80;;;;;;;-0.56;100.00;99841.41;4840677;29;20459;-63
2022/01/21 08:00:43;;;;;;;4.85;1.73;;;;;;;-1.25;100.00;99850.59;4840424;29;20045;-64
2022/01/21 08:03:10;;;;;;;4.50;1.65;;;;;;;-1.07;100.00;99851.16;4840325;29;20062;-62
2022/01/21 08:05:35;;;;;;;7.23;1.90;;;;;;;-0.65;100.00;99844.69;4840530;29;20078;-62
2022/01/21 08:08:02;;;;;;;29.43;12.43;;;;;;;1.13;100.00;99853.25;4840397;29;20045;-62
2022/01/21 08:10:28;;;;;;;8.33;2.20;;;;;;;1.78;100.00;99858.59;4839061;29;20438;-62
2022/01/21 08:12:54;;;;;;;7.13;1.90;;;;;;;0.81;100.00;99862.81;4840166;29;20807;-62
2022/01/21 08:15:20;;;;;;;6.60;2.00;;;;;;;0.29;100.00;99866.72;4839527;29;20284;-62
2022/01/21 08:17:45;;;;;;;3.97;1.67;;;;;;;1.44;100.00;99852.53;4822484;29;20042;-62
2022/01/21 08:20:11;;;;;;;6.00;2.00;;;;;;;0.03;100.00;99870.41;4820740;29;20094;-62
2022/01/21 08:22:37;;;;;;;7.20;2.10;;;;;;;-0.23;100.00;99867.88;4822135;29;20034;-62
2022/01/21 08:25:04;;;;;;;6.07;2.13;;;;;;;0.26;100.00;99861.66;4831436;29;20383;-62
2022/01/21 08:27:29;;;;;;;5.07;2.20;;;;;;;1.51;100.00;99859.94;4839887;29;20144;-62
2022/01/21 08:29:56;;;;;;;6.60;2.03;;;;;;;-0.64;100.00;99859.47;4839539;29;20272;-62
2022/01/21 08:32:22;;;;;;;5.37;2.10;;;;;;;-0.85;100.00;99859.22;4839557;29;20041;-62
2022/01/21 08:34:49;;;;;;;6.53;2.00;;;;;;;0.76;100.00;99855.25;4839803;29;20337;-62
2022/01/21 08:37:16;;;;;;;5.30;1.90;;;;;;;-0.45;100.00;99863.31;4838692;29;20743;-62
2022/01/21 08:39:43;;;;;;;9.90;3.43;;;;;;;0.96;100.00;99861.63;4840090;29;20265;-62
2022/01/21 08:42:09;;;;;;;4.20;1.70;;;;;;;1.06;100.00;99857.31;4839890;29;20311;-62
2022/01/21 08:44:35;;;;;;;5.07;1.90;;;;;;;0.40;100.00;99865.91;4840129;29;20767;-62
2022/01/21 08:47:00;;;;;;;7.80;2.33;;;;;;;-0.60;100.00;99866.22;4840304;29;20360;-61
2022/01/21 08:49:26;;;;;;;10.53;3.37;;;;;;;1.03;100.00;99855.78;4829721;29;20042;-61
2022/01/21 08:51:54;;;;;;;5.50;1.97;;;;;;;0.38;100.00;99863.38;4819964;29;20026;-61
2022/01/21 08:54:22;;;;;;;5.37;1.97;;;;;;;0.23;100.00;99857.47;4822043;29;20026;-62
2022/01/21 08:56:50;;;;;;;4.70;1.80;;;;;;;0.03;100.00;99857.25;4825047;29;20326;-62
2022/01/21 08:59:17;;;;;;;4.67;1.80;;;;;;;1.17;100.00;99853.84;4825005;29;20277;-62
2022/01/21 09:01:46;;;;;;;7.47;2.20;;;;;;;1.79;100.00;99855.00;4824849;29;20354;-63
2022/01/21 09:04:12;;;;;;;4.57;2.23;;;;;;;0.16;100.00;99852.78;4823704;29;20266;-62
2022/01/21 09:06:37;;;;;;;5.53;2.13;;;;;;;0.64;100.00;99848.28;4823705;29;20274;-62
2022/01/21 09:09:04;;;;;;;4.87;2.13;;;;;;;2.35;100.00;99843.41;4824933;29;20040;-62
2022/01/21 09:11:29;;;;;;;6.67;2.13;;;;;;;1.06;100.00;99849.41;4823421;29;20505;-62
2022/01/21 09:13:56;;;;;;;5.70;2.27;;;;;;;1.65;100.00;99857.03;4824577;29;20303;-62
2022/01/21 09:16:21;;;;;;;5.63;2.13;;;;;;;1.14;100.00;99862.00;4823765;29;20560;-62
2022/01/21 09:18:52;;;;;;;9.03;2.30;;;;;;;0.82;100.00;99857.41;4824584;29;20368;-62
2022/01/21 09:21:20;;;;;;;6.03;2.20;;;;;;;2.56;100.00;99852.16;4822247;29;20030;-62
2022/01/21 09:23:48;;;;;;;5.30;2.10;;;;;;;2.72;100.00;99857.00;4824628;29;20417;-62
2022/01/21 09:26:18;;;;;;;7.73;2.37;;;;;;;1.77;100.00;99864.81;4824541;29;20297;-62
2022/01/21 09:28:45;;;;;;;5.33;2.10;;;;;;;0.90;100.00;99867.34;4824674;29;20278;-62
2022/01/21 09:31:11;;;;;;;7.17;2.23;;;;;;;2.23;100.00;99861.09;4824515;29;20463;-62
2022/01/21 09:33:37;;;;;;;6.17;2.00;;;;;;;3.71;100.00;99859.81;4823263;29;20300;-62
2022/01/21 09:36:03;;;;;;;7.83;2.47;;;;;;;3.47;97.38;99854.03;4824452;29;20051;-62
2022/01/21 09:38:30;;;;;;;6.07;2.20;;;;;;;3.13;100.00;99858.75;4824222;29;20281;-62
2022/01/21 09:40:57;;;;;;;6.50;2.20;;;;;;;2.58;100.00;99871.34;4824262;29;20281;-62
2022/01/21 09:43:23;;;;;;;8.80;2.63;;;;;;;3.67;98.36;99861.09;4824447;29;20284;-62
2022/01/21 09:45:54;;;;;;;6.53;2.00;;;;;;;3.00;99.42;99864.25;4824395;29;20624;-62
2022/01/21 09:48:29;;;;;;;6.67;2.00;;;;;;;2.42;100.00;99855.16;4824086;29;20100;-63
2022/01/21 09:50:58;;;;;;;8.37;2.30;;;;;;;2.45;100.00;99860.16;4824281;29;20756;-61
2022/01/21 09:53:35;;;;;;;7.07;2.73;;;;;;;2.41;100.00;99853.47;4821660;29;20669;-61
2022/01/21 09:56:05;;;;;;;7.13;2.20;;;;;;;1.27;100.00;99850.38;4822912;29;20282;-63
2022/01/21 09:58:32;;;;;;;6.20;2.17;;;;;;;2.27;100.00;99859.03;4824213;29;20307;-63
2022/01/21 10:01:05;;;;;;;7.33;2.10;;;;;;;1.19;100.00;99852.78;4824052;29;20322;-63
2022/01/21 10:03:32;;;;;;;6.75;1.90;;;;;;;2.46;100.00;99849.47;4822817;29;20672;-63
2022/01/21 10:05:57;;;;;;;6.03;2.50;;;;;;;2.74;100.00;99853.28;4823236;29;20404;-63
2022/01/21 10:08:23;;;;;;;9.53;2.33;;;;;;;2.43;99.18;99854.16;4823580;29;20278;-63
2022/01/21 10:10:50;;;;;;;6.37;1.93;;;;;;;2.58;97.12;99858.16;4823716;29;20062;-61
2022/01/21 10:13:17;;;;;;;8.37;2.40;;;;;;;3.43;100.00;99845.56;4823687;29;20293;-63
2022/01/21 10:15:43;;;;;;;7.80;3.13;;;;;;;2.31;95.53;99863.09;4823795;29;20270;-63
2022/01/21 10:18:14;;;;;;;6.30;2.50;;;;;;;2.07;99.71;99847.50;4823930;29;20270;-63
2022/01/21 10:21:06;;;;;;;5.50;1.83;;;;;;;2.93;95.59;99842.00;4823653;29;20035;-63
2022/01/21 10:23:37;;;;;;;4.80;2.03;;;;;;;2.30;100.00;99849.09;4826740;29;20305;-63
2022/01/21 10:26:11;;;;;;;4.17;1.83;;;;;;;2.71;100.00;99844.78;4822841;29;20736;-64
2022/01/21 10:28:40;;;;;;;;;;;;;;;1.40;100.00;99848.44;4823962;29;20316;-63
2022/01/21 10:31:17;;;;;;;6.13;1.80;;;;;;;2.18;100.00;99850.94;4823647;29;19923;-63
2022/01/21 10:33:48;;;;;;;5.43;2.10;;;;;;;2.45;97.88;99846.94;4823702;29;20278;-63
2022/01/21 10:36:21;;;;;;;6.87;2.10;;;;;;;0.99;100.00;99841.16;4823223;29;20270;-63
2022/01/21 10:38:50;;;;;;;5.87;1.90;;;;;;;2.58;100.00;99852.88;4823488;29;20274;-63
2022/01/21 10:41:17;;;;;;;9.77;2.93;;;;;;;1.38;100.00;99847.75;4823347;29;20290;-64
2022/01/21 10:43:45;;;;;;;6.13;2.10;;;;;;;0.45;100.00;99843.59;4823344;29;20278;-63
2022/01/21 10:46:16;;;;;;;4.73;1.73;;;;;;;0.60;100.00;99841.56;4822106;29;20357;-61
2022/01/21 10:48:58;;;;;;;9.37;2.07;;;;;;;0.28;100.00;99844.84;4823126;29;20360;-61
2022/01/21 10:51:26;;;;;;;5.17;1.87;;;;;;;0.13;100.00;99851.22;4823331;29;20338;-61
2022/01/21 10:53:52;;;;;;;6.17;1.80;;;;;;;0.29;100.00;99829.91;4823326;29;20282;-61
2022/01/21 10:56:19;;;;;;;8.55;2.13;;;;;;;0.38;100.00;99818.69;4820435;29;20274;-63
2022/01/21 10:58:54;;;;;;;6.40;1.60;;;;;;;0.47;100.00;99830.31;4821413;29;20364;-63
2022/01/21 11:01:23;;;;;;;6.63;1.93;;;;;;;0.92;100.00;99832.09;4823133;29;20285;-61
2022/01/21 11:03:58;;;;;;;6.37;1.80;;;;;;;1.00;100.00;99827.06;4823240;29;20269;-60
2022/01/21 11:06:26;;;;;;;7.70;2.00;;;;;;;0.24;100.00;99830.22;4822976;29;20682;-63
2022/01/21 11:09:11;;;;;;;6.70;1.80;;;;;;;1.20;100.00;99825.50;4823426;29;20304;-62
2022/01/21 11:11:37;;;;;;;5.77;1.80;;;;;;;1.11;100.00;99810.44;4822834;29;20370;-62
2022/01/21 11:14:10;;;;;;;5.73;1.87;;;;;;;0.50;100.00;99830.06;4822968;29;20819;-63
2022/01/21 11:16:37;;;;;;;6.57;1.90;;;;;;;1.92;100.00;99825.84;4822795;29;20109;-62
2022/01/21 11:19:08;;;;;;;5.57;1.90;;;;;;;2.26;94.57;99820.44;4822742;29;20337;-64
2022/01/21 11:21:38;;;;;;;8.47;2.20;;;;;;;2.43;91.63;99819.88;4822849;29;20923;-62
2022/01/21 11:24:08;;;;;;;4.13;2.30;;;;;;;1.60;97.10;99810.00;4822828;29;20280;-62
2022/01/21 11:26:33;;;;;;;5.37;2.00;;;;;;;1.89;96.11;99815.56;4818705;29;20752;-62
2022/01/21 11:29:02;;;;;;;6.17;2.17;;;;;;;1.80;97.09;99803.97;4822438;29;20282;-61
2022/01/21 11:31:29;;;;;;;8.03;2.00;;;;;;;2.16;91.81;99815.94;4822639;29;20026;-63
2022/01/21 11:33:54;;;;;;;5.87;1.80;;;;;;;2.37;91.19;99805.41;4822530;29;20280;-62
2022/01/21 11:36:20;;;;;;;6.30;2.20;;;;;;;2.28;92.42;99802.69;4822392;29;20624;-63
2022/01/21 11:38:48;;;;;;;6.80;2.17;;;;;;;1.72;93.63;99780.06;4822650;29;20038;-63
2022/01/21 11:41:15;;;;;;;4.83;2.20;;;;;;;1.45;100.00;99791.00;4822450;29;20054;-63
2022/01/21 11:43:48;;;;;;;5.57;2.10;;;;;;;1.94;94.67;99775.66;4821597;29;20270;-62
2022/01/21 11:46:37;;;;;;;5.00;2.00;;;;;;;1.82;98.15;99774.84;4822847;29;20266;-65
2022/01/21 11:49:11;;;;;;;5.80;2.20;;;;;;;2.81;91.26;99761.22;4821673;29;20049;-65
2022/01/21 11:51:38;;;;;;;4.90;1.90;;;;;;;3.16;97.12;99760.81;4821093;29;20274;-65
2022/01/21 11:54:08;;;;;;;5.93;2.00;;;;;;;3.70;89.94;99762.16;4826921;29;20803;-65
2022/01/21 11:56:39;;;;;;;5.80;2.10;;;;;;;3.06;91.03;99754.66;4840322;29;20329;-65
2022/01/21 11:59:08;;;;;;;8.63;2.33;;;;;;;2.91;92.50;99759.44;4820315;29;20277;-65
2022/01/21 12:01:48;;;;;;;7.70;2.50;;;;;;;2.86;88.42;99754.59;4820756;29;20297;-65
2022/01/21 12:04:29;;;;;;;5.77;2.00;;;;;;;3.51;90.99;99758.53;4821252;29;20277;-65
2022/01/21 12:07:01;;;;;;;7.40;2.27;;;;;;;2.09;95.66;99764.66;4822325;29;20299;-66
2022/01/21 12:09:54;;;;;;;9.70;2.40;;;;;;;2.52;96.96;99761.91;4822336;29;20359;-67
2022/01/21 12:12:20;;;;;;;6.77;2.10;;;;;;;1.55;100.00;99758.66;4831317;29;20278;-65
2022/01/21 12:14:51;;;;;;;5.77;2.17;;;;;;;1.26;100.00;99748.69;4835475;29;20320;-64
2022/01/21 12:17:49;;;;;;;7.73;2.10;;;;;;;1.15;100.00;99753.97;4840478;29;20033;-65
2022/01/21 12:20:14;;;;;;;7.10;2.10;;;;;;;0.60;100.00;99763.50;4840236;29;20659;-64
2022/01/21 12:22:40;;;;;;;11.23;1.93;;;;;;;0.47;100.00;99746.16;4840279;29;20293;-65